sensor_id;sensor_type;location;lat;lon;timestamp;temperature;humidity
3528;DHT22;1778;47.966;7.854;2022-07-22T00:01:00;18.50;99.90
3528;DHT22;1778;47.966;7.854;2022-07-22T00:02:01;18.50;99.90
3528;DHT22;1778;47.966;7.854;2022-07-22T00:03:03;18.50;99.90
3528;DHT22;1778;47.966;7.854;2022-07-22T00:04:05;18.50;99.90
3528;DHT22;1778;47.966;7.854;2022-07-22T00:05:08;18.50;99.90
3528;DHT22;1778;47.966;7.854;2022-07-22T00:06:11;18.50;99.90
3528;DHT22;1778;47.966;7.854;2022-07-22T00:07:14;18.50;99.90
3528;DHT22;1778;47.966;7.854;2022-07-22T00:08:16;18.50;99.90
3528;DHT22;1778;47.966;7.854;2022-07-22T00:09:18;18.60;99.90
3528;DHT22;1778;47.966;7.854;2022-07-22T00:10:19;18.60;99.90
3528;DHT22;1778;47.966;7.854;2022-07-22T00:11:22;18.50;99.90
3528;DHT22;1778;47.966;7.854;2022-07-22T00:12:23;18.50;99.90
3528;DHT22;1778;47.966;7.854;2022-07-22T00:13:25;18.60;99.90
3528;DHT22;1778;47.966;7.854;2022-07-22T00:14:27;18.60;99.90
3528;DHT22;1778;47.966;7.854;2022-07-22T00:15:28;18.60;99.90
3528;DHT22;1778;47.966;7.854;2022-07-22T00:16:31;18.60;99.90
3528;DHT22;1778;47.966;7.854;2022-07-22T00:17:34;18.50;99.90
3528;DHT22;1778;47.966;7.854;2022-07-22T00:18:37;18.50;99.90
3528;DHT22;1778;47.966;7.854;2022-07-22T00:19:39;18.40;99.90
3528;DHT22;1778;47.966;7.854;2022-07-22T00:20:41;18.40;99.90
3528;DHT22;1778;47.966;7.854;2022-07-22T00:21:44;18.30;99.90
3528;DHT22;1778;47.966;7.854;2022-07-22T00:22:45;18.40;99.90
3528;DHT22;1778;47.966;7.854;2022-07-22T00:23:47;18.40;99.90
3528;DHT22;1778;47.966;7.854;2022-07-22T00:24:49;18.40;99.90
3528;DHT22;1778;47.966;7.854;2022-07-22T00:25:50;18.40;99.90
3528;DHT22;1778;47.966;7.854;2022-07-22T00:26:52;18.30;99.90
3528;DHT22;1778;47.966;7.854;2022-07-22T00:27:54;18.30;99.90
3528;DHT22;1778;47.966;7.854;2022-07-22T00:28:55;18.50;99.90
3528;DHT22;1778;47.966;7.854;2022-07-22T00:29:58;18.50;99.90
3528;DHT22;1778;47.966;7.854;2022-07-22T00:30:59;18.40;99.90
3528;DHT22;1778;47.966;7.854;2022-07-22T00:32:02;18.50;99.90
3528;DHT22;1778;47.966;7.854;2022-07-22T00:33:04;18.40;99.90
3528;DHT22;1778;47.966;7.854;2022-07-22T00:34:06;18.40;99.90
3528;DHT22;1778;47.966;7.854;2022-07-22T00:35:08;18.40;99.90
3528;DHT22;1778;47.966;7.854;2022-07-22T00:36:10;18.40;99.90
3528;DHT22;1778;47.966;7.854;2022-07-22T00:37:11;18.40;99.90
3528;DHT22;1778;47.966;7.854;2022-07-22T00:38:13;18.40;99.90
3528;DHT22;1778;47.966;7.854;2022-07-22T00:39:15;18.40;99.90
3528;DHT22;1778;47.966;7.854;2022-07-22T00:40:17;18.40;99.90
3528;DHT22;1778;47.966;7.854;2022-07-22T00:41:19;18.30;99.90
3528;DHT22;1778;47.966;7.854;2022-07-22T00:42:21;18.30;99.90
3528;DHT22;1778;47.966;7.854;2022-07-22T00:43:24;18.30;99.90
3528;DHT22;1778;47.966;7.854;2022-07-22T00:44:26;18.30;99.90
3528;DHT22;1778;47.966;7.854;2022-07-22T00:45:28;18.40;99.90
3528;DHT22;1778;47.966;7.854;2022-07-22T00:46:32;18.30;99.90
3528;DHT22;1778;47.966;7.854;2022-07-22T00:47:34;18.30;99.90
3528;DHT22;1778;47.966;7.854;2022-07-22T00:48:36;18.30;99.90
3528;DHT22;1778;47.966;7.854;2022-07-22T00:49:38;18.30;99.90
3528;DHT22;1778;47.966;7.854;2022-07-22T00:50:40;18.40;99.90
3528;DHT22;1778;47.966;7.854;2022-07-22T00:51:43;18.40;99.90
3528;DHT22;1778;47.966;7.854;2022-07-22T00:52:47;18.40;99.90
3528;DHT22;1778;47.966;7.854;2022-07-22T00:53:49;18.30;99.90
3528;DHT22;1778;47.966;7.854;2022-07-22T00:54:51;18.30;99.90
3528;DHT22;1778;47.966;7.854;2022-07-22T00:55:53;18.30;99.90
3528;DHT22;1778;47.966;7.854;2022-07-22T00:56:57;18.30;99.90
3528;DHT22;1778;47.966;7.854;2022-07-22T00:57:59;18.30;99.90
3528;DHT22;1778;47.966;7.854;2022-07-22T00:59:03;18.30;99.90
3528;DHT22;1778;47.966;7.854;2022-07-22T01:00:08;18.30;99.90
3528;DHT22;1778;47.966;7.854;2022-07-22T01:01:11;18.40;99.90
3528;DHT22;1778;47.966;7.854;2022-07-22T01:02:14;18.40;99.90
3528;DHT22;1778;47.966;7.854;2022-07-22T01:03:16;18.40;99.90
3528;DHT22;1778;47.966;7.854;2022-07-22T01:04:18;18.40;99.90
3528;DHT22;1778;47.966;7.854;2022-07-22T01:05:20;18.30;99.90
3528;DHT22;1778;47.966;7.854;2022-07-22T01:06:22;18.30;99.90
3528;DHT22;1778;47.966;7.854;2022-07-22T01:07:23;18.20;99.90
3528;DHT22;1778;47.966;7.854;2022-07-22T01:08:25;18.20;99.90
3528;DHT22;1778;47.966;7.854;2022-07-22T01:09:27;18.30;99.90
3528;DHT22;1778;47.966;7.854;2022-07-22T01:10:29;18.30;99.90
3528;DHT22;1778;47.966;7.854;2022-07-22T01:11:31;18.30;99.90
3528;DHT22;1778;47.966;7.854;2022-07-22T01:12:33;18.30;99.90
3528;DHT22;1778;47.966;7.854;2022-07-22T01:13:35;18.30;99.90
3528;DHT22;1778;47.966;7.854;2022-07-22T01:14:38;18.20;99.90
3528;DHT22;1778;47.966;7.854;2022-07-22T01:15:39;18.20;99.90
3528;DHT22;1778;47.966;7.854;2022-07-22T01:16:41;18.20;99.90
3528;DHT22;1778;47.966;7.854;2022-07-22T01:17:49;18.20;99.90
3528;DHT22;1778;47.966;7.854;2022-07-22T01:18:51;18.20;99.90
3528;DHT22;1778;47.966;7.854;2022-07-22T01:19:53;18.20;99.90
3528;DHT22;1778;47.966;7.854;2022-07-22T01:20:55;18.20;99.90
3528;DHT22;1778;47.966;7.854;2022-07-22T01:21:56;18.20;99.90
3528;DHT22;1778;47.966;7.854;2022-07-22T01:22:58;18.20;99.90
3528;DHT22;1778;47.966;7.854;2022-07-22T01:24:00;18.20;99.90
3528;DHT22;1778;47.966;7.854;2022-07-22T01:25:02;18.10;99.90
3528;DHT22;1778;47.966;7.854;2022-07-22T01:26:04;18.10;99.90
3528;DHT22;1778;47.966;7.854;2022-07-22T01:27:06;18.10;99.90
3528;DHT22;1778;47.966;7.854;2022-07-22T01:28:08;18.10;99.90
3528;DHT22;1778;47.966;7.854;2022-07-22T01:29:10;18.10;99.90
3528;DHT22;1778;47.966;7.854;2022-07-22T01:30:12;18.10;99.90
3528;DHT22;1778;47.966;7.854;2022-07-22T01:31:14;18.10;99.90
3528;DHT22;1778;47.966;7.854;2022-07-22T01:32:16;18.10;99.90
3528;DHT22;1778;47.966;7.854;2022-07-22T01:33:21;18.10;99.90
3528;DHT22;1778;47.966;7.854;2022-07-22T01:34:23;18.10;99.90
3528;DHT22;1778;47.966;7.854;2022-07-22T01:35:26;18.10;99.90
3528;DHT22;1778;47.966;7.854;2022-07-22T01:36:28;18.10;99.90
3528;DHT22;1778;47.966;7.854;2022-07-22T01:37:32;18.10;99.90
3528;DHT22;1778;47.966;7.854;2022-07-22T01:38:35;18.10;99.90
3528;DHT22;1778;47.966;7.854;2022-07-22T01:39:37;18.10;99.90
3528;DHT22;1778;47.966;7.854;2022-07-22T01:40:39;18.10;99.90
3528;DHT22;1778;47.966;7.854;2022-07-22T01:41:42;18.10;99.90
3528;DHT22;1778;47.966;7.854;2022-07-22T01:42:46;18.00;99.90
3528;DHT22;1778;47.966;7.854;2022-07-22T01:43:48;18.00;99.90
3528;DHT22;1778;47.966;7.854;2022-07-22T01:44:49;18.00;99.90
3528;DHT22;1778;47.966;7.854;2022-07-22T01:45:52;18.00;99.90
3528;DHT22;1778;47.966;7.854;2022-07-22T01:46:55;18.00;99.90
3528;DHT22;1778;47.966;7.854;2022-07-22T01:47:57;18.00;99.90
3528;DHT22;1778;47.966;7.854;2022-07-22T01:49:00;18.00;99.90
3528;DHT22;1778;47.966;7.854;2022-07-22T01:50:08;18.00;99.90
3528;DHT22;1778;47.966;7.854;2022-07-22T01:51:10;18.00;99.90
3528;DHT22;1778;47.966;7.854;2022-07-22T01:52:13;18.00;99.90
3528;DHT22;1778;47.966;7.854;2022-07-22T01:53:16;17.90;99.90
3528;DHT22;1778;47.966;7.854;2022-07-22T01:54:19;17.90;99.90
3528;DHT22;1778;47.966;7.854;2022-07-22T01:55:21;17.80;99.90
3528;DHT22;1778;47.966;7.854;2022-07-22T01:56:23;17.90;99.90
3528;DHT22;1778;47.966;7.854;2022-07-22T01:57:24;17.90;99.90
3528;DHT22;1778;47.966;7.854;2022-07-22T01:58:28;17.90;99.90
3528;DHT22;1778;47.966;7.854;2022-07-22T01:59:31;17.90;99.90
3528;DHT22;1778;47.966;7.854;2022-07-22T02:00:37;17.90;99.90
3528;DHT22;1778;47.966;7.854;2022-07-22T02:01:39;18.00;99.90
3528;DHT22;1778;47.966;7.854;2022-07-22T02:02:41;18.00;99.90
3528;DHT22;1778;47.966;7.854;2022-07-22T02:03:44;18.00;99.90
3528;DHT22;1778;47.966;7.854;2022-07-22T02:04:46;18.00;99.90
3528;DHT22;1778;47.966;7.854;2022-07-22T02:05:48;18.10;99.90
3528;DHT22;1778;47.966;7.854;2022-07-22T02:06:55;18.10;99.90
3528;DHT22;1778;47.966;7.854;2022-07-22T02:08:02;18.10;99.90
3528;DHT22;1778;47.966;7.854;2022-07-22T02:09:12;18.00;99.90
3528;DHT22;1778;47.966;7.854;2022-07-22T02:10:17;17.90;99.90
3528;DHT22;1778;47.966;7.854;2022-07-22T02:11:18;17.80;99.90
3528;DHT22;1778;47.966;7.854;2022-07-22T02:12:29;17.80;99.90
3528;DHT22;1778;47.966;7.854;2022-07-22T02:13:30;17.80;99.90
3528;DHT22;1778;47.966;7.854;2022-07-22T02:14:33;17.80;99.90
3528;DHT22;1778;47.966;7.854;2022-07-22T02:15:36;17.70;99.90
3528;DHT22;1778;47.966;7.854;2022-07-22T02:16:38;17.80;99.90
3528;DHT22;1778;47.966;7.854;2022-07-22T02:17:40;17.80;99.90
3528;DHT22;1778;47.966;7.854;2022-07-22T02:18:42;17.80;99.90
3528;DHT22;1778;47.966;7.854;2022-07-22T02:19:44;17.70;99.90
3528;DHT22;1778;47.966;7.854;2022-07-22T02:20:47;17.70;99.90
3528;DHT22;1778;47.966;7.854;2022-07-22T02:21:48;17.70;99.90
3528;DHT22;1778;47.966;7.854;2022-07-22T02:22:50;17.70;99.90
3528;DHT22;1778;47.966;7.854;2022-07-22T02:23:52;17.60;99.90
3528;DHT22;1778;47.966;7.854;2022-07-22T02:24:53;17.60;99.90
3528;DHT22;1778;47.966;7.854;2022-07-22T02:25:55;17.70;99.90
3528;DHT22;1778;47.966;7.854;2022-07-22T02:26:56;17.70;99.90
3528;DHT22;1778;47.966;7.854;2022-07-22T02:27:58;17.70;99.90
3528;DHT22;1778;47.966;7.854;2022-07-22T02:29:00;17.70;99.90
3528;DHT22;1778;47.966;7.854;2022-07-22T02:30:02;17.70;99.90
3528;DHT22;1778;47.966;7.854;2022-07-22T02:31:04;17.70;99.90
3528;DHT22;1778;47.966;7.854;2022-07-22T02:32:06;17.60;99.90
3528;DHT22;1778;47.966;7.854;2022-07-22T02:33:08;17.60;99.90
3528;DHT22;1778;47.966;7.854;2022-07-22T02:34:10;17.70;99.90
3528;DHT22;1778;47.966;7.854;2022-07-22T02:35:13;17.60;99.90
3528;DHT22;1778;47.966;7.854;2022-07-22T02:36:15;17.60;99.90
3528;DHT22;1778;47.966;7.854;2022-07-22T02:37:18;17.50;99.90
3528;DHT22;1778;47.966;7.854;2022-07-22T02:38:19;17.60;99.90
3528;DHT22;1778;47.966;7.854;2022-07-22T02:39:21;17.60;99.90
3528;DHT22;1778;47.966;7.854;2022-07-22T02:40:23;17.60;99.90
3528;DHT22;1778;47.966;7.854;2022-07-22T02:41:25;17.60;99.90
3528;DHT22;1778;47.966;7.854;2022-07-22T02:42:30;17.70;99.90
3528;DHT22;1778;47.966;7.854;2022-07-22T02:43:31;17.60;99.90
3528;DHT22;1778;47.966;7.854;2022-07-22T02:44:33;17.60;99.90
3528;DHT22;1778;47.966;7.854;2022-07-22T02:45:34;17.60;99.90
3528;DHT22;1778;47.966;7.854;2022-07-22T02:46:36;17.50;99.90
3528;DHT22;1778;47.966;7.854;2022-07-22T02:47:53;17.60;99.90
3528;DHT22;1778;47.966;7.854;2022-07-22T02:48:57;17.60;99.90
3528;DHT22;1778;47.966;7.854;2022-07-22T02:50:00;17.50;99.90
3528;DHT22;1778;47.966;7.854;2022-07-22T02:51:02;17.60;99.90
3528;DHT22;1778;47.966;7.854;2022-07-22T02:52:05;17.60;99.90
3528;DHT22;1778;47.966;7.854;2022-07-22T02:53:06;17.60;99.90
3528;DHT22;1778;47.966;7.854;2022-07-22T02:54:11;17.50;99.90
3528;DHT22;1778;47.966;7.854;2022-07-22T02:55:14;17.60;99.90
3528;DHT22;1778;47.966;7.854;2022-07-22T02:56:16;17.60;99.90
3528;DHT22;1778;47.966;7.854;2022-07-22T02:57:18;17.60;99.90
3528;DHT22;1778;47.966;7.854;2022-07-22T02:58:20;17.60;99.90
3528;DHT22;1778;47.966;7.854;2022-07-22T02:59:22;17.60;99.90
3528;DHT22;1778;47.966;7.854;2022-07-22T03:00:24;17.60;99.90
3528;DHT22;1778;47.966;7.854;2022-07-22T03:01:26;17.60;99.90
3528;DHT22;1778;47.966;7.854;2022-07-22T03:02:33;17.60;99.90
3528;DHT22;1778;47.966;7.854;2022-07-22T03:03:35;17.50;99.90
3528;DHT22;1778;47.966;7.854;2022-07-22T03:04:37;17.50;99.90
3528;DHT22;1778;47.966;7.854;2022-07-22T03:05:39;17.50;99.90
3528;DHT22;1778;47.966;7.854;2022-07-22T03:07:07;17.50;99.90
3528;DHT22;1778;47.966;7.854;2022-07-22T03:08:09;17.60;99.90
3528;DHT22;1778;47.966;7.854;2022-07-22T03:09:12;17.60;99.90
3528;DHT22;1778;47.966;7.854;2022-07-22T03:10:17;17.50;99.90
3528;DHT22;1778;47.966;7.854;2022-07-22T03:11:19;17.50;99.90
3528;DHT22;1778;47.966;7.854;2022-07-22T03:12:20;17.50;99.90
3528;DHT22;1778;47.966;7.854;2022-07-22T03:13:22;17.50;99.90
3528;DHT22;1778;47.966;7.854;2022-07-22T03:14:24;17.40;99.90
3528;DHT22;1778;47.966;7.854;2022-07-22T03:15:27;17.40;99.90
3528;DHT22;1778;47.966;7.854;2022-07-22T03:16:29;17.40;99.90
3528;DHT22;1778;47.966;7.854;2022-07-22T03:17:35;17.40;99.90
3528;DHT22;1778;47.966;7.854;2022-07-22T03:18:39;17.30;99.90
3528;DHT22;1778;47.966;7.854;2022-07-22T03:19:40;17.30;99.90
3528;DHT22;1778;47.966;7.854;2022-07-22T03:20:42;17.30;99.90
3528;DHT22;1778;47.966;7.854;2022-07-22T03:21:44;17.30;99.90
3528;DHT22;1778;47.966;7.854;2022-07-22T03:22:45;17.40;99.90
3528;DHT22;1778;47.966;7.854;2022-07-22T03:23:47;17.40;99.90
3528;DHT22;1778;47.966;7.854;2022-07-22T03:24:54;17.40;99.90
3528;DHT22;1778;47.966;7.854;2022-07-22T03:25:56;17.30;99.90
3528;DHT22;1778;47.966;7.854;2022-07-22T03:26:58;17.30;99.90
3528;DHT22;1778;47.966;7.854;2022-07-22T03:28:00;17.30;99.90
3528;DHT22;1778;47.966;7.854;2022-07-22T03:29:01;17.30;99.90
3528;DHT22;1778;47.966;7.854;2022-07-22T03:30:05;17.30;99.90
3528;DHT22;1778;47.966;7.854;2022-07-22T03:31:12;17.30;99.90
3528;DHT22;1778;47.966;7.854;2022-07-22T03:32:13;17.30;99.90
3528;DHT22;1778;47.966;7.854;2022-07-22T03:33:20;17.30;99.90
3528;DHT22;1778;47.966;7.854;2022-07-22T03:34:22;17.30;99.90
3528;DHT22;1778;47.966;7.854;2022-07-22T03:35:31;17.30;99.90
3528;DHT22;1778;47.966;7.854;2022-07-22T03:36:33;17.30;99.90
3528;DHT22;1778;47.966;7.854;2022-07-22T03:37:34;17.20;99.90
3528;DHT22;1778;47.966;7.854;2022-07-22T03:38:37;17.20;99.90
3528;DHT22;1778;47.966;7.854;2022-07-22T03:39:38;17.30;99.90
3528;DHT22;1778;47.966;7.854;2022-07-22T03:40:40;17.30;99.90
3528;DHT22;1778;47.966;7.854;2022-07-22T03:41:42;17.30;99.90
3528;DHT22;1778;47.966;7.854;2022-07-22T03:42:44;17.20;99.90
3528;DHT22;1778;47.966;7.854;2022-07-22T03:43:48;17.10;99.90
3528;DHT22;1778;47.966;7.854;2022-07-22T03:44:51;17.20;99.90
3528;DHT22;1778;47.966;7.854;2022-07-22T03:45:54;17.10;99.90
3528;DHT22;1778;47.966;7.854;2022-07-22T03:46:55;17.10;99.90
3528;DHT22;1778;47.966;7.854;2022-07-22T03:47:57;17.20;99.90
3528;DHT22;1778;47.966;7.854;2022-07-22T03:49:02;17.20;99.90
3528;DHT22;1778;47.966;7.854;2022-07-22T03:50:05;17.20;99.90
3528;DHT22;1778;47.966;7.854;2022-07-22T03:51:09;17.20;99.90
3528;DHT22;1778;47.966;7.854;2022-07-22T03:52:10;17.20;99.90
3528;DHT22;1778;47.966;7.854;2022-07-22T03:53:21;17.10;99.90
3528;DHT22;1778;47.966;7.854;2022-07-22T03:54:23;17.10;99.90
3528;DHT22;1778;47.966;7.854;2022-07-22T03:55:24;17.10;99.90
3528;DHT22;1778;47.966;7.854;2022-07-22T03:56:28;17.10;99.90
3528;DHT22;1778;47.966;7.854;2022-07-22T03:57:30;17.10;99.90
3528;DHT22;1778;47.966;7.854;2022-07-22T03:58:38;17.10;99.90
3528;DHT22;1778;47.966;7.854;2022-07-22T03:59:40;17.10;99.90
3528;DHT22;1778;47.966;7.854;2022-07-22T04:00:41;17.10;99.90
3528;DHT22;1778;47.966;7.854;2022-07-22T04:01:43;17.10;99.90
3528;DHT22;1778;47.966;7.854;2022-07-22T04:02:46;17.10;99.90
3528;DHT22;1778;47.966;7.854;2022-07-22T04:03:58;17.10;99.90
3528;DHT22;1778;47.966;7.854;2022-07-22T04:05:11;17.10;99.90
3528;DHT22;1778;47.966;7.854;2022-07-22T04:06:13;17.10;99.90
3528;DHT22;1778;47.966;7.854;2022-07-22T04:07:20;17.00;99.90
3528;DHT22;1778;47.966;7.854;2022-07-22T04:08:21;17.10;99.90
3528;DHT22;1778;47.966;7.854;2022-07-22T04:09:23;17.00;99.90
3528;DHT22;1778;47.966;7.854;2022-07-22T04:10:25;17.10;99.90
3528;DHT22;1778;47.966;7.854;2022-07-22T04:11:27;17.00;99.90
3528;DHT22;1778;47.966;7.854;2022-07-22T04:12:29;17.10;99.90
3528;DHT22;1778;47.966;7.854;2022-07-22T04:13:44;17.10;99.90
3528;DHT22;1778;47.966;7.854;2022-07-22T04:14:47;17.10;99.90
3528;DHT22;1778;47.966;7.854;2022-07-22T04:15:48;17.10;99.90
3528;DHT22;1778;47.966;7.854;2022-07-22T04:16:50;17.00;99.90
3528;DHT22;1778;47.966;7.854;2022-07-22T04:17:52;17.10;99.90
3528;DHT22;1778;47.966;7.854;2022-07-22T04:18:54;17.10;99.90
3528;DHT22;1778;47.966;7.854;2022-07-22T04:20:12;17.10;99.90
3528;DHT22;1778;47.966;7.854;2022-07-22T04:21:43;17.00;99.90
3528;DHT22;1778;47.966;7.854;2022-07-22T04:22:45;17.00;99.90
3528;DHT22;1778;47.966;7.854;2022-07-22T04:23:47;17.10;99.90
3528;DHT22;1778;47.966;7.854;2022-07-22T04:25:00;17.20;99.90
3528;DHT22;1778;47.966;7.854;2022-07-22T04:26:02;17.20;99.90
3528;DHT22;1778;47.966;7.854;2022-07-22T04:27:05;17.20;99.90
3528;DHT22;1778;47.966;7.854;2022-07-22T04:28:10;17.20;99.90
3528;DHT22;1778;47.966;7.854;2022-07-22T04:29:14;17.20;99.90
3528;DHT22;1778;47.966;7.854;2022-07-22T04:30:16;17.20;99.90
3528;DHT22;1778;47.966;7.854;2022-07-22T04:31:21;17.10;99.90
3528;DHT22;1778;47.966;7.854;2022-07-22T04:32:28;17.10;99.90
3528;DHT22;1778;47.966;7.854;2022-07-22T04:33:30;17.10;99.90
3528;DHT22;1778;47.966;7.854;2022-07-22T04:34:32;17.10;99.90
3528;DHT22;1778;47.966;7.854;2022-07-22T04:35:34;17.10;99.90
3528;DHT22;1778;47.966;7.854;2022-07-22T04:36:48;17.10;99.90
3528;DHT22;1778;47.966;7.854;2022-07-22T04:37:51;17.10;99.90
3528;DHT22;1778;47.966;7.854;2022-07-22T04:38:54;17.10;99.90
3528;DHT22;1778;47.966;7.854;2022-07-22T04:39:56;17.10;99.90
3528;DHT22;1778;47.966;7.854;2022-07-22T04:40:58;17.10;99.90
3528;DHT22;1778;47.966;7.854;2022-07-22T04:42:00;17.10;99.90
3528;DHT22;1778;47.966;7.854;2022-07-22T04:43:03;17.10;99.90
3528;DHT22;1778;47.966;7.854;2022-07-22T04:44:04;17.10;99.90
3528;DHT22;1778;47.966;7.854;2022-07-22T04:45:07;17.10;99.90
3528;DHT22;1778;47.966;7.854;2022-07-22T04:46:09;17.20;99.90
3528;DHT22;1778;47.966;7.854;2022-07-22T04:47:15;17.10;99.90
3528;DHT22;1778;47.966;7.854;2022-07-22T04:48:38;17.10;99.90
3528;DHT22;1778;47.966;7.854;2022-07-22T04:49:39;17.10;99.90
3528;DHT22;1778;47.966;7.854;2022-07-22T04:50:43;17.10;99.90
3528;DHT22;1778;47.966;7.854;2022-07-22T04:51:45;17.10;99.90
3528;DHT22;1778;47.966;7.854;2022-07-22T04:52:57;17.10;99.90
3528;DHT22;1778;47.966;7.854;2022-07-22T04:54:00;17.10;99.90
3528;DHT22;1778;47.966;7.854;2022-07-22T04:55:03;17.10;99.90
3528;DHT22;1778;47.966;7.854;2022-07-22T04:56:06;17.20;99.90
3528;DHT22;1778;47.966;7.854;2022-07-22T04:57:08;17.20;99.90
3528;DHT22;1778;47.966;7.854;2022-07-22T04:58:10;17.20;99.90
3528;DHT22;1778;47.966;7.854;2022-07-22T04:59:19;17.10;99.90
3528;DHT22;1778;47.966;7.854;2022-07-22T05:00:21;17.20;99.90
3528;DHT22;1778;47.966;7.854;2022-07-22T05:01:27;17.20;99.90
3528;DHT22;1778;47.966;7.854;2022-07-22T05:02:30;17.20;99.90
3528;DHT22;1778;47.966;7.854;2022-07-22T05:03:31;17.20;99.90
3528;DHT22;1778;47.966;7.854;2022-07-22T05:04:33;17.20;99.90
3528;DHT22;1778;47.966;7.854;2022-07-22T05:05:35;17.20;99.90
3528;DHT22;1778;47.966;7.854;2022-07-22T05:06:36;17.30;99.90
3528;DHT22;1778;47.966;7.854;2022-07-22T05:07:39;17.20;99.90
3528;DHT22;1778;47.966;7.854;2022-07-22T05:08:40;17.30;99.90
3528;DHT22;1778;47.966;7.854;2022-07-22T05:09:42;17.30;99.90
3528;DHT22;1778;47.966;7.854;2022-07-22T05:10:46;17.30;99.90
3528;DHT22;1778;47.966;7.854;2022-07-22T05:11:48;17.30;99.90
3528;DHT22;1778;47.966;7.854;2022-07-22T05:12:53;17.30;99.90
3528;DHT22;1778;47.966;7.854;2022-07-22T05:13:54;17.30;99.90
3528;DHT22;1778;47.966;7.854;2022-07-22T05:14:56;17.30;99.90
3528;DHT22;1778;47.966;7.854;2022-07-22T05:16:02;17.30;99.90
3528;DHT22;1778;47.966;7.854;2022-07-22T05:17:10;17.30;99.90
3528;DHT22;1778;47.966;7.854;2022-07-22T05:18:29;17.40;99.90
3528;DHT22;1778;47.966;7.854;2022-07-22T05:19:31;17.40;99.90
3528;DHT22;1778;47.966;7.854;2022-07-22T05:20:34;17.40;99.90
3528;DHT22;1778;47.966;7.854;2022-07-22T05:21:36;17.40;99.90
3528;DHT22;1778;47.966;7.854;2022-07-22T05:22:37;17.50;99.90
3528;DHT22;1778;47.966;7.854;2022-07-22T05:23:45;17.60;99.90
3528;DHT22;1778;47.966;7.854;2022-07-22T05:24:49;17.60;99.90
3528;DHT22;1778;47.966;7.854;2022-07-22T05:25:50;17.80;99.90
3528;DHT22;1778;47.966;7.854;2022-07-22T05:26:52;17.80;99.90
3528;DHT22;1778;47.966;7.854;2022-07-22T05:27:55;17.70;99.90
3528;DHT22;1778;47.966;7.854;2022-07-22T05:29:04;17.80;99.90
3528;DHT22;1778;47.966;7.854;2022-07-22T05:30:35;17.80;99.90
3528;DHT22;1778;47.966;7.854;2022-07-22T05:31:38;17.80;99.90
3528;DHT22;1778;47.966;7.854;2022-07-22T05:32:40;17.90;99.90
3528;DHT22;1778;47.966;7.854;2022-07-22T05:33:42;17.90;99.90
3528;DHT22;1778;47.966;7.854;2022-07-22T05:35:08;17.90;99.90
3528;DHT22;1778;47.966;7.854;2022-07-22T05:36:10;17.90;99.90
3528;DHT22;1778;47.966;7.854;2022-07-22T05:37:17;17.90;99.90
3528;DHT22;1778;47.966;7.854;2022-07-22T05:38:20;18.00;99.90
3528;DHT22;1778;47.966;7.854;2022-07-22T05:39:21;18.00;99.90
3528;DHT22;1778;47.966;7.854;2022-07-22T05:40:23;18.10;99.90
3528;DHT22;1778;47.966;7.854;2022-07-22T05:41:26;18.10;99.90
3528;DHT22;1778;47.966;7.854;2022-07-22T05:42:27;18.10;99.90
3528;DHT22;1778;47.966;7.854;2022-07-22T05:43:29;18.20;99.90
3528;DHT22;1778;47.966;7.854;2022-07-22T05:44:31;18.30;99.90
3528;DHT22;1778;47.966;7.854;2022-07-22T05:45:33;18.50;99.90
3528;DHT22;1778;47.966;7.854;2022-07-22T05:46:35;18.50;99.90
3528;DHT22;1778;47.966;7.854;2022-07-22T05:47:38;18.50;99.90
3528;DHT22;1778;47.966;7.854;2022-07-22T05:48:39;18.60;99.90
3528;DHT22;1778;47.966;7.854;2022-07-22T05:49:41;18.60;99.90
3528;DHT22;1778;47.966;7.854;2022-07-22T05:50:46;18.60;99.90
3528;DHT22;1778;47.966;7.854;2022-07-22T05:51:49;18.60;99.90
3528;DHT22;1778;47.966;7.854;2022-07-22T05:52:51;18.60;99.90
3528;DHT22;1778;47.966;7.854;2022-07-22T05:53:53;18.70;99.90
3528;DHT22;1778;47.966;7.854;2022-07-22T05:54:58;18.70;99.90
3528;DHT22;1778;47.966;7.854;2022-07-22T05:56:01;18.70;99.90
3528;DHT22;1778;47.966;7.854;2022-07-22T05:57:08;18.80;99.90
3528;DHT22;1778;47.966;7.854;2022-07-22T05:58:12;18.80;99.90
3528;DHT22;1778;47.966;7.854;2022-07-22T05:59:14;18.80;99.90
3528;DHT22;1778;47.966;7.854;2022-07-22T06:00:17;18.80;99.90
3528;DHT22;1778;47.966;7.854;2022-07-22T06:01:19;18.90;99.90
3528;DHT22;1778;47.966;7.854;2022-07-22T06:02:21;18.90;99.90
3528;DHT22;1778;47.966;7.854;2022-07-22T06:03:23;18.90;99.90
3528;DHT22;1778;47.966;7.854;2022-07-22T06:04:25;19.00;99.90
3528;DHT22;1778;47.966;7.854;2022-07-22T06:05:27;19.00;99.90
3528;DHT22;1778;47.966;7.854;2022-07-22T06:06:41;19.20;99.90
3528;DHT22;1778;47.966;7.854;2022-07-22T06:07:43;19.20;99.90
3528;DHT22;1778;47.966;7.854;2022-07-22T06:08:49;19.20;99.90
3528;DHT22;1778;47.966;7.854;2022-07-22T06:09:54;19.20;99.90
3528;DHT22;1778;47.966;7.854;2022-07-22T06:10:58;19.30;99.90
3528;DHT22;1778;47.966;7.854;2022-07-22T06:12:01;19.30;99.90
3528;DHT22;1778;47.966;7.854;2022-07-22T06:13:04;19.30;99.90
3528;DHT22;1778;47.966;7.854;2022-07-22T06:14:06;19.30;99.90
3528;DHT22;1778;47.966;7.854;2022-07-22T06:15:08;19.30;99.90
3528;DHT22;1778;47.966;7.854;2022-07-22T06:16:11;19.40;99.90
3528;DHT22;1778;47.966;7.854;2022-07-22T06:17:15;19.40;99.90
3528;DHT22;1778;47.966;7.854;2022-07-22T06:18:16;19.50;99.90
3528;DHT22;1778;47.966;7.854;2022-07-22T06:19:18;19.50;99.90
3528;DHT22;1778;47.966;7.854;2022-07-22T06:20:20;19.60;99.90
3528;DHT22;1778;47.966;7.854;2022-07-22T06:21:22;19.60;99.90
3528;DHT22;1778;47.966;7.854;2022-07-22T06:22:24;19.60;99.90
3528;DHT22;1778;47.966;7.854;2022-07-22T06:23:25;19.70;99.90
3528;DHT22;1778;47.966;7.854;2022-07-22T06:24:27;19.80;99.90
3528;DHT22;1778;47.966;7.854;2022-07-22T06:25:30;19.70;99.90
3528;DHT22;1778;47.966;7.854;2022-07-22T06:27:04;19.70;99.90
3528;DHT22;1778;47.966;7.854;2022-07-22T06:28:06;19.80;99.90
3528;DHT22;1778;47.966;7.854;2022-07-22T06:29:07;19.90;99.90
3528;DHT22;1778;47.966;7.854;2022-07-22T06:30:10;19.90;99.90
3528;DHT22;1778;47.966;7.854;2022-07-22T06:31:12;20.00;99.90
3528;DHT22;1778;47.966;7.854;2022-07-22T06:32:34;20.00;99.90
3528;DHT22;1778;47.966;7.854;2022-07-22T06:33:36;19.90;99.90
3528;DHT22;1778;47.966;7.854;2022-07-22T06:34:39;19.90;99.90
3528;DHT22;1778;47.966;7.854;2022-07-22T06:35:41;20.00;99.90
3528;DHT22;1778;47.966;7.854;2022-07-22T06:36:44;19.90;99.90
3528;DHT22;1778;47.966;7.854;2022-07-22T06:37:45;20.00;99.90
3528;DHT22;1778;47.966;7.854;2022-07-22T06:39:12;19.90;99.90
3528;DHT22;1778;47.966;7.854;2022-07-22T06:40:34;19.80;99.90
3528;DHT22;1778;47.966;7.854;2022-07-22T06:41:57;19.70;99.90
3528;DHT22;1778;47.966;7.854;2022-07-22T06:43:21;19.70;99.90
3528;DHT22;1778;47.966;7.854;2022-07-22T06:44:40;19.70;99.90
3528;DHT22;1778;47.966;7.854;2022-07-22T06:46:00;19.70;99.90
3528;DHT22;1778;47.966;7.854;2022-07-22T06:47:15;19.60;99.90
3528;DHT22;1778;47.966;7.854;2022-07-22T06:48:17;19.70;99.90
3528;DHT22;1778;47.966;7.854;2022-07-22T06:49:20;19.70;99.90
3528;DHT22;1778;47.966;7.854;2022-07-22T06:50:25;19.70;99.90
3528;DHT22;1778;47.966;7.854;2022-07-22T06:51:29;19.70;99.90
3528;DHT22;1778;47.966;7.854;2022-07-22T06:52:32;19.70;99.90
3528;DHT22;1778;47.966;7.854;2022-07-22T06:53:35;19.70;99.90
3528;DHT22;1778;47.966;7.854;2022-07-22T06:54:37;19.80;99.90
3528;DHT22;1778;47.966;7.854;2022-07-22T06:55:39;19.80;99.90
3528;DHT22;1778;47.966;7.854;2022-07-22T06:56:44;19.80;99.90